createdAt,value
2018-11-10T00:00:39.498Z,38.30
2018-11-10T00:03:06.333Z,38.40
2018-11-10T00:05:33.182Z,38.40
2018-11-10T00:08:00.023Z,38.40
2018-11-10T00:10:26.851Z,38.40
2018-11-10T00:12:53.679Z,38.20
2018-11-10T00:15:20.558Z,38.30
2018-11-10T00:17:47.386Z,38.30
2018-11-10T00:20:14.226Z,38.30
2018-11-10T00:22:41.042Z,38.20
2018-11-10T00:25:09.172Z,38.20
2018-11-10T00:27:36.929Z,38.30
2018-11-10T00:30:03.762Z,38.20
2018-11-10T00:32:30.583Z,38.30
2018-11-10T00:34:57.545Z,38.20
2018-11-10T00:37:24.378Z,38.10
2018-11-10T00:39:51.202Z,38.30
2018-11-10T00:42:18.035Z,38.10
2018-11-10T00:44:44.936Z,38.10
2018-11-10T00:47:12.006Z,38.10
2018-11-10T00:49:38.797Z,38.20
2018-11-10T00:52:05.627Z,38.00
2018-11-10T00:54:32.492Z,38.10
2018-11-10T00:56:59.319Z,38.10
2018-11-10T00:59:26.167Z,38.10
2018-11-10T01:01:52.999Z,38.00
2018-11-10T01:04:19.870Z,38.00
2018-11-10T01:06:46.694Z,38.10
2018-11-10T01:09:13.519Z,38.00
2018-11-10T01:11:40.343Z,37.90
2018-11-10T01:14:07.174Z,37.90
2018-11-10T01:16:33.994Z,38.00
2018-11-10T01:19:00.819Z,38.00
2018-11-10T01:21:27.650Z,38.00
2018-11-10T01:23:54.477Z,37.90
2018-11-10T01:26:21.298Z,38.00
2018-11-10T01:28:48.298Z,37.90
2018-11-10T01:31:15.148Z,37.90
2018-11-10T01:33:41.952Z,37.90
2018-11-10T01:36:08.826Z,37.90
2018-11-10T01:38:35.648Z,37.90
2018-11-10T01:41:02.477Z,37.80
2018-11-10T01:43:29.311Z,37.90
2018-11-10T01:45:56.191Z,37.80
2018-11-10T01:48:23.010Z,37.80
2018-11-10T01:50:49.861Z,37.80
2018-11-10T01:53:16.684Z,37.80
2018-11-10T01:55:43.572Z,37.80
2018-11-10T01:58:10.390Z,37.90
2018-11-10T02:00:37.254Z,37.70
2018-11-10T02:03:04.098Z,37.70
2018-11-10T02:05:30.946Z,37.70
2018-11-10T02:07:57.770Z,37.70
2018-11-10T02:10:24.587Z,37.70
2018-11-10T02:12:51.411Z,37.70
2018-11-10T02:15:18.308Z,37.70
2018-11-10T02:17:45.136Z,37.70
2018-11-10T02:20:11.958Z,37.60
2018-11-10T02:22:38.781Z,37.60
2018-11-10T02:25:05.683Z,37.70
2018-11-10T02:27:32.514Z,37.70
2018-11-10T02:29:59.342Z,38.30
2018-11-10T02:32:26.169Z,37.70
2018-11-10T02:34:53.054Z,37.60
2018-11-10T02:37:19.877Z,37.60
2018-11-10T02:39:46.763Z,37.50
2018-11-10T02:42:13.595Z,37.60
2018-11-10T02:44:40.639Z,37.50
2018-11-10T02:47:07.737Z,37.50
2018-11-10T02:49:34.686Z,37.70
2018-11-10T02:52:01.518Z,37.70
2018-11-10T02:54:28.415Z,37.50
2018-11-10T02:56:55.280Z,37.60
2018-11-10T02:59:22.081Z,37.50
2018-11-10T03:01:48.920Z,37.50
2018-11-10T03:04:15.791Z,37.50
2018-11-10T03:06:42.611Z,37.40
2018-11-10T03:09:09.446Z,37.50
2018-11-10T03:11:36.269Z,37.50
2018-11-10T03:14:03.155Z,37.50
2018-11-10T03:16:30.083Z,37.40
2018-11-10T03:18:56.802Z,37.40
2018-11-10T03:21:23.633Z,37.30
2018-11-10T03:23:50.479Z,37.40
2018-11-10T03:26:17.285Z,37.50
2018-11-10T03:28:44.127Z,37.50
2018-11-10T03:31:10.966Z,37.40
2018-11-10T03:33:37.761Z,37.30
2018-11-10T03:36:04.756Z,37.50
2018-11-10T03:38:31.586Z,37.30
2018-11-10T03:40:58.429Z,37.30
2018-11-10T03:43:25.244Z,37.30
2018-11-10T03:45:52.132Z,37.40
2018-11-10T03:48:18.966Z,37.30
2018-11-10T03:50:45.803Z,37.30
2018-11-10T03:53:12.623Z,37.50
2018-11-10T03:55:39.492Z,37.30
2018-11-10T03:58:06.322Z,37.30
2018-11-10T04:00:33.156Z,37.30
2018-11-10T04:02:59.971Z,37.30
2018-11-10T04:05:26.859Z,37.30
2018-11-10T04:07:53.680Z,37.30
2018-11-10T04:10:20.505Z,37.30
2018-11-10T04:12:47.332Z,37.30
2018-11-10T04:15:14.220Z,37.30
2018-11-10T04:17:41.051Z,37.30
2018-11-10T04:20:07.879Z,37.30
2018-11-10T04:22:34.982Z,37.30
2018-11-10T04:25:02.003Z,37.20
2018-11-10T04:27:28.844Z,37.30
2018-11-10T04:29:55.662Z,37.30
2018-11-10T04:32:22.486Z,38.00
2018-11-10T04:34:49.386Z,37.30
2018-11-10T04:37:16.209Z,37.30
2018-11-10T04:39:43.032Z,37.20
2018-11-10T04:42:09.837Z,37.30
2018-11-10T04:44:36.745Z,37.20
2018-11-10T04:47:03.565Z,37.30
2018-11-10T04:49:30.404Z,37.20
2018-11-10T04:51:57.214Z,37.20
2018-11-10T04:54:24.127Z,37.20
2018-11-10T04:56:50.953Z,37.20
2018-11-10T04:59:17.802Z,37.10
2018-11-10T05:01:44.601Z,37.20
2018-11-10T05:04:11.512Z,37.20
2018-11-10T05:06:38.334Z,37.20
2018-11-10T05:09:05.166Z,37.20
2018-11-10T05:11:32.000Z,37.20
2018-11-10T05:13:58.832Z,37.20
2018-11-10T05:16:25.672Z,37.20
2018-11-10T05:18:52.481Z,37.20
2018-11-10T05:21:19.324Z,37.20
2018-11-10T05:23:46.156Z,37.30
2018-11-10T05:26:12.984Z,37.20
2018-11-10T05:28:39.832Z,37.30
2018-11-10T05:31:06.728Z,37.30
2018-11-10T05:33:33.492Z,37.40
2018-11-10T05:36:00.496Z,37.20
2018-11-10T05:38:27.340Z,37.30
2018-11-10T05:40:54.176Z,37.30
2018-11-10T05:43:21.004Z,37.30
2018-11-10T05:45:48.026Z,37.30
2018-11-10T05:48:14.862Z,37.30
2018-11-10T05:50:41.695Z,37.30
2018-11-10T05:53:08.518Z,37.90
2018-11-10T05:55:35.406Z,37.30
2018-11-10T05:58:02.261Z,37.30
2018-11-10T06:00:29.083Z,37.30
2018-11-10T06:02:55.955Z,37.20
2018-11-10T06:05:22.979Z,37.30
2018-11-10T06:07:49.807Z,37.20
2018-11-10T06:10:16.769Z,37.20
2018-11-10T06:12:43.460Z,37.20
2018-11-10T06:15:10.353Z,37.20
2018-11-10T06:17:37.188Z,37.20
2018-11-10T06:20:04.003Z,37.30
2018-11-10T06:22:30.882Z,37.20
2018-11-10T06:24:57.722Z,37.40
2018-11-10T06:27:24.544Z,37.40
2018-11-10T06:29:51.378Z,37.40
2018-11-10T06:32:18.828Z,37.50
2018-11-10T06:34:45.707Z,38.10
2018-11-10T06:37:12.537Z,37.70
2018-11-10T06:39:39.356Z,37.70
2018-11-10T06:42:06.236Z,37.90
2018-11-10T06:44:33.080Z,38.00
2018-11-10T06:46:59.964Z,38.20
2018-11-10T06:49:26.734Z,38.60
2018-11-10T06:51:53.562Z,38.30
2018-11-10T06:54:20.449Z,38.00
2018-11-10T06:56:47.288Z,38.00
2018-11-10T06:59:14.116Z,37.90
2018-11-10T07:01:40.954Z,37.90
2018-11-10T07:04:07.834Z,37.80
2018-11-10T07:06:34.662Z,38.00
2018-11-10T07:09:01.486Z,38.10
2018-11-10T07:11:28.309Z,38.00
2018-11-10T07:13:55.121Z,38.00
2018-11-10T07:16:21.989Z,38.00
2018-11-10T07:18:48.817Z,38.00
2018-11-10T07:21:15.637Z,38.10
2018-11-10T07:23:42.464Z,38.20
2018-11-10T07:26:09.294Z,38.20
2018-11-10T07:28:36.127Z,38.70
2018-11-10T07:31:02.947Z,38.20
2018-11-10T07:33:29.789Z,38.20
2018-11-10T07:35:56.799Z,38.30
2018-11-10T07:38:23.633Z,38.50
2018-11-10T07:40:50.472Z,38.30
2018-11-10T07:43:17.319Z,38.30
2018-11-10T07:45:44.160Z,38.20
2018-11-10T07:48:10.986Z,38.10
2018-11-10T07:50:37.812Z,38.00
2018-11-10T07:53:04.719Z,38.20
2018-11-10T07:55:31.741Z,38.20
2018-11-10T07:57:58.563Z,38.20
2018-11-10T08:00:25.409Z,38.20
2018-11-10T08:02:52.248Z,38.10
2018-11-10T08:05:19.099Z,38.20
2018-11-10T08:07:45.931Z,38.20
2018-11-10T08:10:12.775Z,38.80
2018-11-10T08:12:39.608Z,38.20
2018-11-10T08:15:06.474Z,38.20
2018-11-10T08:17:33.335Z,38.10
2018-11-10T08:20:00.158Z,38.20
2018-11-10T08:22:28.509Z,38.10
2018-11-10T08:24:55.510Z,38.20
2018-11-10T08:27:22.324Z,38.10
2018-11-10T08:29:49.137Z,38.00
2018-11-10T08:32:16.265Z,38.10
2018-11-10T08:34:43.263Z,37.90
2018-11-10T08:37:10.085Z,38.00
2018-11-10T08:39:36.926Z,38.10
2018-11-10T08:42:03.751Z,37.90
2018-11-10T08:44:30.646Z,38.20
2018-11-10T08:46:57.493Z,38.20
2018-11-10T08:49:24.479Z,38.30
2018-11-10T08:51:51.169Z,38.20
2018-11-10T08:54:18.247Z,36.50
2018-11-10T08:56:45.075Z,36.80
2018-11-10T08:59:11.973Z,37.60
2018-11-10T09:01:38.722Z,37.60
2018-11-10T09:04:05.566Z,37.90
2018-11-10T09:06:32.453Z,37.90
2018-11-10T09:08:59.280Z,38.10
2018-11-10T09:11:26.096Z,38.50
2018-11-10T09:13:52.930Z,38.50
2018-11-10T09:16:19.771Z,38.50
2018-11-10T09:18:46.672Z,38.70
2018-11-10T09:21:13.569Z,38.70
2018-11-10T09:23:40.325Z,38.50
2018-11-10T09:26:07.167Z,38.50
2018-11-10T09:28:34.005Z,38.60
2018-11-10T09:31:00.945Z,38.70
2018-11-10T09:33:27.678Z,38.60
2018-11-10T09:35:54.553Z,38.70
2018-11-10T09:38:21.373Z,38.70
2018-11-10T09:40:48.188Z,38.70
2018-11-10T09:43:15.028Z,38.60
2018-11-10T09:45:41.950Z,38.70
2018-11-10T09:48:08.782Z,38.60
2018-11-10T09:50:35.702Z,38.70
2018-11-10T09:53:02.510Z,38.70
2018-11-10T09:55:29.598Z,38.70
2018-11-10T09:57:56.493Z,38.70
2018-11-10T10:00:23.421Z,38.70
2018-11-10T10:02:50.722Z,38.70
2018-11-10T10:05:17.294Z,38.70
2018-11-10T10:07:44.131Z,38.60
2018-11-10T10:10:11.020Z,38.70
2018-11-10T10:12:37.846Z,38.70
2018-11-10T10:15:04.888Z,38.60
2018-11-10T10:17:31.751Z,38.60
2018-11-10T10:19:58.628Z,38.60
2018-11-10T10:22:25.447Z,38.60
2018-11-10T10:24:52.425Z,38.70
2018-11-10T10:27:19.263Z,38.60
2018-11-10T10:29:46.069Z,38.60
2018-11-10T10:32:13.399Z,38.60
2018-11-10T10:34:40.605Z,38.60
2018-11-10T10:37:07.331Z,38.60
2018-11-10T10:39:34.148Z,38.70
2018-11-10T10:42:01.008Z,38.80
2018-11-10T10:44:27.994Z,38.80
2018-11-10T10:46:54.809Z,38.80
2018-11-10T10:49:21.634Z,38.70
2018-11-10T10:51:48.495Z,38.80
2018-11-10T10:54:15.732Z,38.80
2018-11-10T10:56:42.807Z,38.80
2018-11-10T10:59:09.639Z,38.80
2018-11-10T11:01:36.473Z,38.80
2018-11-10T11:04:03.386Z,38.80
2018-11-10T11:06:30.174Z,38.80
2018-11-10T11:08:57.087Z,38.70
2018-11-10T11:11:24.024Z,38.80
2018-11-10T11:13:50.841Z,38.80
2018-11-10T11:16:18.205Z,38.90
2018-11-10T11:18:45.066Z,39.00
2018-11-10T11:21:12.064Z,39.10
2018-11-10T11:23:38.890Z,39.20
2018-11-10T11:26:05.751Z,39.30
2018-11-10T11:28:32.570Z,39.50
2018-11-10T11:30:59.442Z,39.70
2018-11-10T11:33:26.276Z,39.50
2018-11-10T11:36:05.330Z,39.80
2018-11-10T11:38:32.384Z,39.80
2018-11-10T11:40:59.200Z,39.80
2018-11-10T11:43:26.019Z,39.80
2018-11-10T11:45:52.975Z,39.80
2018-11-10T11:48:19.806Z,39.80
2018-11-10T11:50:46.621Z,39.90
2018-11-10T11:53:13.442Z,39.50
2018-11-10T11:55:40.262Z,39.30
2018-11-10T11:58:07.243Z,39.20
2018-11-10T12:00:33.936Z,39.40
2018-11-10T12:03:00.795Z,39.40
2018-11-10T12:05:27.611Z,40.10
2018-11-10T12:07:54.455Z,39.30
2018-11-10T12:10:21.283Z,39.40
2018-11-10T12:12:48.117Z,39.40
2018-11-10T12:15:14.961Z,39.50
2018-11-10T12:17:41.757Z,39.40
2018-11-10T12:20:08.590Z,39.40
2018-11-10T12:22:35.431Z,39.30
2018-11-10T12:25:02.265Z,39.20
2018-11-10T12:27:29.087Z,39.20
2018-11-10T12:29:55.915Z,39.20
2018-11-10T12:32:22.996Z,39.90
2018-11-10T12:34:49.801Z,39.30
2018-11-10T12:37:16.652Z,39.40
2018-11-10T12:39:43.486Z,39.40
2018-11-10T12:42:10.302Z,39.30
2018-11-10T12:44:37.125Z,39.40
2018-11-10T12:47:03.972Z,39.40
2018-11-10T12:49:30.819Z,39.40
2018-11-10T12:51:57.640Z,39.30
2018-11-10T12:54:24.467Z,39.40
2018-11-10T12:56:51.290Z,39.40
2018-11-10T12:59:18.104Z,39.80
2018-11-10T13:01:44.960Z,39.30
2018-11-10T13:04:11.761Z,39.30
2018-11-10T13:06:38.591Z,39.40
2018-11-10T13:09:05.486Z,39.40
2018-11-10T13:11:32.339Z,39.40
2018-11-10T13:13:59.079Z,39.40
2018-11-10T13:16:26.044Z,39.40
2018-11-10T13:18:52.783Z,39.40
2018-11-10T13:21:19.600Z,39.50
2018-11-10T13:23:46.447Z,39.50
2018-11-10T13:26:13.264Z,39.40
2018-11-10T13:28:40.087Z,39.50
2018-11-10T13:31:07.000Z,39.40
2018-11-10T13:33:33.746Z,39.50
2018-11-10T13:36:00.584Z,39.50
2018-11-10T13:38:27.409Z,39.50
2018-11-10T13:40:54.238Z,39.40
2018-11-10T13:43:21.212Z,39.40
2018-11-10T13:45:48.009Z,39.40
2018-11-10T13:48:14.832Z,39.50
2018-11-10T13:50:41.868Z,39.50
2018-11-10T13:53:08.911Z,39.50
2018-11-10T13:55:35.335Z,38.90
2018-11-10T13:58:02.159Z,39.50
2018-11-10T14:00:29.066Z,39.40
2018-11-10T14:02:55.860Z,39.30
2018-11-10T14:05:22.893Z,39.40
2018-11-10T14:07:49.866Z,39.50
2018-11-10T14:10:16.727Z,39.50
2018-11-10T14:12:43.597Z,39.50
2018-11-10T14:15:10.395Z,39.50
2018-11-10T14:17:37.279Z,39.60
2018-11-10T14:20:04.151Z,39.50
2018-11-10T14:22:30.946Z,39.50
2018-11-10T14:24:58.042Z,39.60
2018-11-10T14:27:24.867Z,39.50
2018-11-10T14:29:51.688Z,39.40
2018-11-10T14:32:18.699Z,39.60
2018-11-10T14:34:45.618Z,39.70
2018-11-10T14:37:12.428Z,39.60
2018-11-10T14:39:39.276Z,39.60
2018-11-10T14:42:06.194Z,39.80
2018-11-10T14:44:33.138Z,39.60
2018-11-10T14:46:59.951Z,39.80
2018-11-10T14:49:26.774Z,39.70
2018-11-10T14:51:53.693Z,39.70
2018-11-10T14:54:20.498Z,39.90
2018-11-10T14:56:47.328Z,39.90
2018-11-10T14:59:14.145Z,39.80
2018-11-10T15:01:40.966Z,39.80
2018-11-10T15:04:07.875Z,39.70
2018-11-10T15:06:34.704Z,39.80
2018-11-10T15:09:01.531Z,39.80
2018-11-10T15:11:28.382Z,39.80
2018-11-10T15:13:55.233Z,39.80
2018-11-10T15:16:22.064Z,39.90
2018-11-10T15:18:48.894Z,40.60
2018-11-10T15:21:15.723Z,39.90
2018-11-10T15:23:42.562Z,40.00
2018-11-10T15:26:09.387Z,39.90
2018-11-10T15:28:36.195Z,40.30
2018-11-10T15:31:03.020Z,40.00
2018-11-10T15:33:29.845Z,40.10
2018-11-10T15:35:56.845Z,39.90
2018-11-10T15:38:23.684Z,40.10
2018-11-10T15:40:50.521Z,40.10
2018-11-10T15:43:17.348Z,40.10
2018-11-10T15:45:44.209Z,40.00
2018-11-10T15:48:11.042Z,40.00
2018-11-10T15:50:37.976Z,40.00
2018-11-10T15:53:04.723Z,40.00
2018-11-10T15:55:31.577Z,39.90
2018-11-10T15:57:58.418Z,39.90
2018-11-10T16:00:25.238Z,39.90
2018-11-10T16:02:52.079Z,40.00
2018-11-10T16:05:19.973Z,40.00
2018-11-10T16:07:46.800Z,40.00
2018-11-10T16:10:15.215Z,40.60
2018-11-10T16:12:42.005Z,40.00
2018-11-10T16:15:08.980Z,40.00
2018-11-10T16:17:35.823Z,40.10
2018-11-10T16:20:02.669Z,40.00
2018-11-10T16:22:29.510Z,40.10
2018-11-10T16:24:56.358Z,40.00
2018-11-10T16:27:23.370Z,40.10
2018-11-10T16:29:50.191Z,40.00
2018-11-10T16:32:17.567Z,40.00
2018-11-10T16:34:44.540Z,39.90
2018-11-10T16:37:11.380Z,40.00
2018-11-10T16:39:38.187Z,40.00
2018-11-10T16:42:05.017Z,40.10
2018-11-10T16:44:31.962Z,40.00
2018-11-10T16:46:58.739Z,40.00
2018-11-10T16:49:25.566Z,39.90
2018-11-10T16:51:52.401Z,39.90
2018-11-10T16:54:19.290Z,40.00
2018-11-10T16:56:46.123Z,40.00
2018-11-10T16:59:13.081Z,40.00
2018-11-10T17:01:39.768Z,39.90
2018-11-10T17:04:06.721Z,39.90
2018-11-10T17:06:33.555Z,40.00
2018-11-10T17:09:00.572Z,40.10
2018-11-10T17:11:27.323Z,40.10
2018-11-10T17:13:54.152Z,40.10
2018-11-10T17:16:21.070Z,40.00
2018-11-10T17:18:47.965Z,40.00
2018-11-10T17:21:14.772Z,39.90
2018-11-10T17:23:41.700Z,40.00
2018-11-10T17:26:08.661Z,40.10
2018-11-10T17:28:35.499Z,40.00
2018-11-10T17:31:02.334Z,40.00
2018-11-10T17:33:29.163Z,40.00
2018-11-10T17:35:57.166Z,39.90
2018-11-10T17:38:23.974Z,39.80
2018-11-10T17:40:50.807Z,39.80
2018-11-10T17:43:17.641Z,39.90
2018-11-10T17:45:44.619Z,39.80
2018-11-10T17:48:11.475Z,39.80
2018-11-10T17:50:38.276Z,39.90
2018-11-10T17:53:05.085Z,39.80
2018-11-10T17:55:32.267Z,39.90
2018-11-10T17:57:59.329Z,39.80
2018-11-10T18:00:26.291Z,39.70
2018-11-10T18:02:57.022Z,39.70
2018-11-10T18:05:23.874Z,39.70
2018-11-10T18:07:50.813Z,39.80
2018-11-10T18:10:17.637Z,39.80
2018-11-10T18:12:44.502Z,39.70
2018-11-10T18:15:11.451Z,39.90
2018-11-10T18:17:38.390Z,40.10
2018-11-10T18:20:05.220Z,40.10
2018-11-10T18:22:32.043Z,40.10
2018-11-10T18:24:59.034Z,40.30
2018-11-10T18:27:25.855Z,40.20
2018-11-10T18:29:52.687Z,40.20
2018-11-10T18:32:19.975Z,40.10
2018-11-10T18:34:46.815Z,40.20
2018-11-10T18:37:13.648Z,40.30
2018-11-10T18:39:40.487Z,40.20
2018-11-10T18:42:07.304Z,40.40
2018-11-10T18:44:34.178Z,40.40
2018-11-10T18:47:01.039Z,40.30
2018-11-10T18:49:27.891Z,40.30
2018-11-10T18:51:54.713Z,40.30
2018-11-10T18:54:21.857Z,40.30
2018-11-10T18:56:48.788Z,40.30
2018-11-10T18:59:15.651Z,40.20
2018-11-10T19:01:42.465Z,40.30
2018-11-10T19:04:09.356Z,40.20
2018-11-10T19:06:36.203Z,40.30
2018-11-10T19:09:03.020Z,40.20
2018-11-10T19:11:29.880Z,40.20
2018-11-10T19:13:56.728Z,40.10
2018-11-10T19:16:23.547Z,40.10
2018-11-10T19:18:50.397Z,40.20
2018-11-10T19:21:17.259Z,40.20
2018-11-10T19:23:45.115Z,40.10
2018-11-10T19:26:11.951Z,40.30
2018-11-10T19:28:38.782Z,40.20
2018-11-10T19:31:05.770Z,40.10
2018-11-10T19:33:32.591Z,40.10
2018-11-10T19:35:59.617Z,40.20
2018-11-10T19:38:26.442Z,40.30
2018-11-10T19:40:53.249Z,40.20
2018-11-10T19:43:20.086Z,40.10
2018-11-10T19:45:47.091Z,40.10
2018-11-10T19:48:13.988Z,40.10
2018-11-10T19:50:40.878Z,40.20
2018-11-10T19:53:07.668Z,40.20
2018-11-10T19:55:34.720Z,40.20
2018-11-10T19:58:01.535Z,40.20
2018-11-10T20:00:28.395Z,40.20
2018-11-10T20:02:55.268Z,40.20
2018-11-10T20:05:22.264Z,40.10
2018-11-10T20:07:49.198Z,40.20
2018-11-10T20:10:16.113Z,40.20
2018-11-10T20:12:42.982Z,40.20
2018-11-10T20:15:09.836Z,40.10
2018-11-10T20:17:36.662Z,40.20
2018-11-10T20:20:03.507Z,40.10
2018-11-10T20:22:30.382Z,40.10
2018-11-10T20:24:57.397Z,40.10
2018-11-10T20:27:24.234Z,40.10
2018-11-10T20:29:51.142Z,40.10
2018-11-10T20:32:19.162Z,40.10
2018-11-10T20:34:45.992Z,40.10
2018-11-10T20:37:12.829Z,40.10
2018-11-10T20:39:39.697Z,40.10
2018-11-10T20:42:06.491Z,40.10
2018-11-10T20:44:33.390Z,40.10
2018-11-10T20:47:00.193Z,40.10
2018-11-10T20:49:27.032Z,40.10
2018-11-10T20:51:53.845Z,40.00
2018-11-10T20:54:20.735Z,40.10
2018-11-10T20:56:47.578Z,40.00
2018-11-10T20:59:22.423Z,40.00
2018-11-10T21:01:52.678Z,40.00
2018-11-10T21:04:19.662Z,39.90
2018-11-10T21:06:46.480Z,40.00
2018-11-10T21:09:13.472Z,40.00
2018-11-10T21:11:40.299Z,40.10
2018-11-10T21:14:07.159Z,39.90
2018-11-10T21:16:46.157Z,39.90
2018-11-10T21:19:18.058Z,39.90
2018-11-10T21:21:58.403Z,39.90
2018-11-10T21:24:38.753Z,39.80
2018-11-10T21:29:59.342Z,39.90
2018-11-10T21:32:26.456Z,39.80
2018-11-10T21:34:53.379Z,39.80
2018-11-10T21:37:20.238Z,39.80
2018-11-10T21:39:47.047Z,39.80
2018-11-10T21:42:13.877Z,39.70
2018-11-10T21:44:40.749Z,39.80
2018-11-10T21:47:07.572Z,39.70
2018-11-10T21:49:34.545Z,39.70
2018-11-10T21:52:01.247Z,39.80
2018-11-10T21:54:28.145Z,39.70
2018-11-10T21:56:54.947Z,39.70
2018-11-10T21:59:21.771Z,39.70
2018-11-10T22:01:48.602Z,39.70
2018-11-10T22:04:15.491Z,39.70
2018-11-10T22:06:42.332Z,39.70
2018-11-10T22:09:09.303Z,39.70
2018-11-10T22:11:35.975Z,39.70
2018-11-10T22:14:02.812Z,39.70
2018-11-10T22:16:29.642Z,39.80
2018-11-10T22:18:56.471Z,39.70
2018-11-10T22:21:23.270Z,39.70
2018-11-10T22:23:50.099Z,39.80
2018-11-10T22:26:16.927Z,39.70
2018-11-10T22:28:43.760Z,39.70
2018-11-10T22:31:10.803Z,39.70
2018-11-10T22:33:37.606Z,39.80
2018-11-10T22:36:04.449Z,39.70
2018-11-10T22:38:31.319Z,39.70
2018-11-10T22:40:58.143Z,39.70
2018-11-10T22:43:26.064Z,39.70
2018-11-10T22:45:53.256Z,39.70
2018-11-10T22:48:20.114Z,39.70
2018-11-10T22:50:46.899Z,39.70
2018-11-10T22:53:13.890Z,39.70
2018-11-10T22:55:40.833Z,39.70
2018-11-10T22:58:07.659Z,39.70
2018-11-10T23:00:35.735Z,39.70
2018-11-10T23:03:02.935Z,39.70
2018-11-10T23:05:29.839Z,39.70
2018-11-10T23:07:56.828Z,39.70
2018-11-10T23:10:23.656Z,39.60
2018-11-10T23:12:50.484Z,39.60
2018-11-10T23:15:17.623Z,39.60
2018-11-10T23:17:44.464Z,39.60
2018-11-10T23:20:11.302Z,39.60
2018-11-10T23:22:38.305Z,39.60
2018-11-10T23:25:05.237Z,39.60
2018-11-10T23:27:32.042Z,39.70
2018-11-10T23:29:58.864Z,39.70
2018-11-10T23:32:25.686Z,39.70
2018-11-10T23:34:52.570Z,39.70
2018-11-10T23:37:19.394Z,39.60
2018-11-10T23:39:46.227Z,39.60
2018-11-10T23:42:13.046Z,39.60
2018-11-10T23:44:39.938Z,39.60
2018-11-10T23:47:06.783Z,39.70
2018-11-10T23:49:33.592Z,39.60
2018-11-10T23:52:00.422Z,39.60
2018-11-10T23:54:27.343Z,39.60
2018-11-10T23:56:54.144Z,39.60
2018-11-10T23:59:20.975Z,39.60
